Portada
METAR-TAF:

METAR-TAF

Aeroports :

Aeroport Internacional de Chubu

Nagoya, Japó

latitud: 34-51-30N, longitud: 136-48-19E, altitud: 5 m

Observació

L'informe es va fer fa 28 minuts, a les 18:00 UTC
Vent 10 kt del Nord
Temperatura 8°C
Humitat 81%
Pressió 1021 hPa
Visibilitat 10 km o més
Escasses núvols a una alçada de 2000 ft

METAR: RJGG 241800Z 35010KT 9999 FEW020 08/05 Q1021 NOSIG

Hora: 03:28 (18:28 UTC)

Pronòstic

L'informe es va fer fa 1 hora i 23 minuts, a les 17:05 UTC
Pronòstic vàlid del 24 a les 18 UTC al 26 a les 00 UTC
Vent 12 kt del Nord/Nord-Oest
Visibilitat 10 km o més
Escasses núvols a una alçada de 2000 ft
Núvols disperses a una alçada de 5000 ft
Evolucionant progressivament
l' 25 a les 15 UTC al 25 a les 18 UTC
Vent 12 kt del Est

TAF: RJGG 241705Z 2418/2600 34012KT 9999 FEW020 SCT050 BECMG 2515/2518 10012KT

Observacions i pronòstics meteorològics de més de 4000 aeroports (METAR i TAF).

Les estacions disponibles són els punts grocs i vermells al mapa.

Posi el ratolí al punt desitjat per veure el nom de l'estació.

Feu clic per veure les observacions i els pronòstics meteorològics.

Per canviar el mapa: feu clic els botons verds amb una creu de color negre per apropar; al botó verd amb un guió per allunyar la imatge; o en les fletxes verdes per a mapes adjacents.


METAR-TAF: